Time;durP1;ratioP1;P1;durP2;ratioP2;P2;SDS_P1;SDS_P2;PMS_P1;PMS_P2;Temp;Humidity;BMP_temperature;BMP_pressure;BME280_temperature;BME280_humidity;BME280_pressure;Samples;Min_cycle;Max_cycle;Signal;HPM_P1;HPM_P2
2022/03/06 00:00:18;;;;;;;49.00;30.57;;;4.40;1.00;;;;;;6111343;23;20151;-90
2022/03/06 00:02:44;;;;;;;42.00;29.03;;;4.30;1.00;;;;;;6111124;23;20155;-91
2022/03/06 00:05:14;;;;;;;48.80;28.00;;;4.30;1.00;;;;;;6105360;23;20155;-88
2022/03/06 00:07:44;;;;;;;46.87;28.73;;;4.30;1.00;;;;;;6104175;23;20147;-92
2022/03/06 00:10:10;;;;;;;47.53;29.00;;;4.20;1.00;;;;;;6105380;23;20170;-89
2022/03/06 00:12:36;;;;;;;47.80;29.20;;;4.20;1.00;;;;;;6109816;23;20147;-92
2022/03/06 00:15:02;;;;;;;47.40;27.87;;;4.40;1.00;;;;;;6132769;23;20147;-90
2022/03/06 00:17:29;;;;;;;44.57;26.10;;;4.20;1.00;;;;;;6106400;23;20187;-89
2022/03/06 00:19:55;;;;;;;45.10;28.43;;;4.20;1.00;;;;;;6106546;23;20175;-91
2022/03/06 00:22:22;;;;;;;48.73;29.83;;;4.20;1.00;;;;;;6106128;23;20144;-88
2022/03/06 00:24:48;;;;;;;50.53;29.73;;;4.10;1.00;;;;;;6135583;23;20158;-88
2022/03/06 00:27:17;;;;;;;52.37;28.73;;;4.10;1.00;;;;;;6094846;23;20159;-89
2022/03/06 00:29:48;;;;;;;49.20;30.10;;;4.00;1.00;;;;;;6110938;23;20167;-87
2022/03/06 00:32:21;;;;;;;51.40;28.47;;;4.10;1.00;;;;;;6117948;23;20147;-87
2022/03/06 00:34:48;;;;;;;46.77;28.13;;;4.10;1.00;;;;;;6112763;23;20214;-88
2022/03/06 00:37:17;;;;;;;47.50;29.80;;;4.00;1.00;;;;;;6115189;23;20191;-90
2022/03/06 00:39:49;;;;;;;48.17;29.53;;;4.00;1.00;;;;;;6117788;23;20218;-88
2022/03/06 00:42:15;;;;;;;50.53;29.87;;;4.00;1.00;;;;;;6118120;23;20151;-89
2022/03/06 00:44:55;;;;;;;46.97;28.07;;;3.90;1.00;;;;;;6110000;23;20151;-88
2022/03/06 00:47:21;;;;;;;47.67;28.07;;;3.90;1.00;;;;;;6108217;23;20159;-88
2022/03/06 00:49:49;;;;;;;48.67;29.97;;;3.90;1.00;;;;;;6120464;23;20132;-88
2022/03/06 00:52:17;;;;;;;52.90;30.80;;;3.90;1.00;;;;;;6114636;23;20155;-88
2022/03/06 00:54:49;;;;;;;50.53;30.33;;;4.00;1.00;;;;;;6134099;23;20146;-90
2022/03/06 00:57:17;;;;;;;51.07;30.60;;;4.00;1.00;;;;;;6126774;23;20238;-92
2022/03/06 00:59:48;;;;;;;47.00;28.63;;;4.00;1.00;;;;;;6138018;23;20174;-89
2022/03/06 01:02:14;;;;;;;46.00;29.83;;;3.90;1.00;;;;;;6113541;23;20166;-88
2022/03/06 01:04:41;;;;;;;47.00;27.17;;;3.90;1.00;;;;;;6113231;23;20477;-88
2022/03/06 01:07:06;;;;;;;45.73;27.30;;;3.80;1.00;;;;;;6135425;23;20219;-88
2022/03/06 01:09:32;;;;;;;49.90;29.27;;;3.90;1.00;;;;;;6106815;23;20147;-91
2022/03/06 01:12:01;;;;;;;50.27;28.20;;;4.00;1.00;;;;;;6106636;23;20154;-91
2022/03/06 01:14:29;;;;;;;43.83;27.50;;;3.70;1.00;;;;;;6106829;23;20236;-93
2022/03/06 01:16:55;;;;;;;44.20;26.43;;;3.60;1.00;;;;;;6111497;23;20155;-90
2022/03/06 01:19:24;;;;;;;48.37;27.50;;;3.50;1.00;;;;;;6111269;23;20242;-88
2022/03/06 01:22:03;;;;;;;45.40;25.37;;;3.40;3.90;;;;;;6139114;23;20224;-89
2022/03/06 01:24:30;;;;;;;50.83;27.13;;;3.50;4.60;;;;;;6112910;23;20147;-88
2022/03/06 01:26:57;;;;;;;52.60;28.30;;;3.60;5.40;;;;;;6114372;23;20198;-88
2022/03/06 01:29:24;;;;;;;46.57;27.80;;;3.40;7.00;;;;;;6113908;23;20159;-89
2022/03/06 01:31:53;;;;;;;45.37;27.17;;;3.50;5.50;;;;;;6113276;23;20162;-87
2022/03/06 01:34:21;;;;;;;45.87;28.60;;;3.40;4.50;;;;;;6114963;23;20174;-89
2022/03/06 01:37:00;;;;;;;47.27;28.27;;;3.40;5.20;;;;;;6135890;23;20171;-87
2022/03/06 01:39:28;;;;;;;48.13;28.30;;;3.40;6.30;;;;;;6114111;23;20581;-89
2022/03/06 01:42:00;;;;;;;45.93;27.57;;;3.50;3.90;;;;;;6094398;23;20139;-91
2022/03/06 01:45:06;;;;;;;46.00;25.27;;;3.40;4.00;;;;;;6123476;23;20143;-87
2022/03/06 01:47:44;;;;;;;47.57;27.77;;;3.30;4.30;;;;;;6123356;23;20183;-88
2022/03/06 01:50:15;;;;;;;51.40;30.07;;;3.30;7.80;;;;;;6109823;23;20143;-89
2022/03/06 01:53:31;;;;;;;52.00;26.73;;;3.20;9.20;;;;;;6112138;23;20147;-93
2022/03/06 01:55:57;;;;;;;46.10;27.57;;;3.20;9.20;;;;;;6134257;23;20481;-90
2022/03/06 01:58:23;;;;;;;50.37;27.90;;;3.20;8.00;;;;;;6106864;23;20159;-89
2022/03/06 02:00:49;;;;;;;45.17;25.43;;;3.20;9.00;;;;;;6106022;23;20150;-89
2022/03/06 02:03:16;;;;;;;49.03;28.50;;;3.20;6.00;;;;;;6106129;23;20524;-89
2022/03/06 02:05:43;;;;;;;46.40;29.37;;;3.10;8.30;;;;;;6112994;23;20147;-88
2022/03/06 02:08:10;;;;;;;48.63;28.63;;;3.20;8.60;;;;;;6107541;23;20186;-89
2022/03/06 02:10:40;;;;;;;44.83;27.30;;;3.10;7.30;;;;;;6106540;23;20147;-92
2022/03/06 02:13:06;;;;;;;45.37;27.67;;;3.10;6.60;;;;;;6120027;23;20209;-94
2022/03/06 02:15:33;;;;;;;46.90;27.23;;;3.10;5.70;;;;;;6115965;23;20154;-87
2022/03/06 02:18:00;;;;;;;44.93;27.07;;;3.00;6.70;;;;;;6110600;23;20198;-88
2022/03/06 02:20:28;;;;;;;45.60;26.33;;;3.10;7.40;;;;;;6109894;23;20150;-89
2022/03/06 02:22:56;;;;;;;47.37;27.87;;;2.90;9.00;;;;;;6132359;23;20143;-92
2022/03/06 02:25:30;;;;;;;44.30;26.60;;;2.90;11.60;;;;;;6106196;23;20151;-87
2022/03/06 02:28:00;;;;;;;46.63;27.77;;;2.80;10.10;;;;;;6126117;23;20210;-87
2022/03/06 02:30:32;;;;;;;49.50;28.40;;;2.80;13.00;;;;;;6124891;23;20585;-89
2022/03/06 02:33:02;;;;;;;53.33;30.00;;;2.80;13.00;;;;;;6117264;23;20151;-89
2022/03/06 02:35:42;;;;;;;48.57;28.43;;;2.80;13.00;;;;;;6139685;23;20219;-94
2022/03/06 02:38:11;;;;;;;47.83;26.03;;;2.80;13.00;;;;;;6106463;23;20186;-92
2022/03/06 02:40:39;;;;;;;46.43;28.83;;;2.80;9.90;;;;;;6106752;23;20153;-90
2022/03/06 02:43:07;;;;;;;48.10;29.30;;;2.80;11.70;;;;;;6086654;23;20155;-93
2022/03/06 02:45:33;;;;;;;48.70;29.37;;;2.80;12.70;;;;;;6086898;23;20619;-89
2022/03/06 02:48:00;;;;;;;44.27;26.97;;;2.80;9.10;;;;;;6146436;23;20178;-89
2022/03/06 02:50:30;;;;;;;42.93;26.63;;;2.80;8.40;;;;;;6127304;23;20151;-89
2022/03/06 02:52:57;;;;;;;48.07;28.13;;;2.70;9.80;;;;;;6120809;23;20162;-90
2022/03/06 02:55:23;;;;;;;43.87;27.10;;;2.70;13.00;;;;;;6113006;23;20161;-92
2022/03/06 02:58:01;;;;;;;46.67;28.10;;;2.70;11.30;;;;;;6087558;23;20569;-89
2022/03/06 03:00:55;;;;;;;49.07;28.53;;;2.70;13.60;;;;;;6116488;23;20214;-87
2022/03/06 03:03:39;;;;;;;49.73;28.37;;;2.70;13.70;;;;;;6126919;23;20138;-87
2022/03/06 03:06:07;;;;;;;48.43;27.70;;;2.70;13.00;;;;;;6124329;23;20246;-89
2022/03/06 03:08:32;;;;;;;47.03;28.63;;;2.60;12.30;;;;;;6113423;23;20187;-90
2022/03/06 03:11:02;;;;;;;44.90;27.30;;;2.60;13.80;;;;;;6134800;23;20198;-87
2022/03/06 03:13:30;;;;;;;43.90;25.77;;;2.60;14.70;;;;;;6102466;23;20170;-87
2022/03/06 03:19:19;;;;;;;44.30;27.87;;;2.70;13.00;;;;;;6148549;23;20135;-89
2022/03/06 03:21:55;;;;;;;45.33;29.13;;;2.80;11.40;;;;;;6128748;23;20190;-88
2022/03/06 03:24:23;;;;;;;44.73;27.37;;;2.80;9.70;;;;;;6097119;23;20241;-88
2022/03/06 03:26:56;;;;;;;46.70;27.93;;;2.70;9.40;;;;;;6110000;23;20186;-89
2022/03/06 03:29:21;;;;;;;48.37;28.93;;;2.90;6.40;;;;;;6109273;23;20152;-89
2022/03/06 03:32:17;;;;;;;41.67;25.13;;;2.70;5.80;;;;;;6107775;23;20178;-87
2022/03/06 03:35:00;;;;;;;42.50;26.67;;;2.70;3.00;;;;;;6152621;23;20214;-88
2022/03/06 03:37:44;;;;;;;42.30;27.80;;;2.60;8.10;;;;;;6124897;23;20191;-87
2022/03/06 03:40:11;;;;;;;45.73;26.20;;;2.60;3.70;;;;;;6126434;23;20170;-88
2022/03/06 03:42:36;;;;;;;44.53;26.33;;;2.60;1.00;;;;;;6105722;23;20151;-89
2022/03/06 03:45:05;;;;;;;40.67;24.93;;;2.60;1.00;;;;;;6131425;23;20142;-88
2022/03/06 03:47:32;;;;;;;44.57;25.93;;;2.50;1.00;;;;;;6107997;23;20178;-89
2022/03/06 03:49:57;;;;;;;40.50;24.90;;;2.40;3.90;;;;;;6131084;23;20166;-87
2022/03/06 03:52:36;;;;;;;44.93;27.20;;;2.30;5.40;;;;;;6129096;23;20179;-87
2022/03/06 03:55:06;;;;;;;41.80;25.93;;;2.30;8.00;;;;;;6120137;23;20151;-89
2022/03/06 03:57:36;;;;;;;44.40;27.13;;;2.30;8.90;;;;;;6112374;23;20198;-90
2022/03/06 04:00:32;;;;;;;45.07;24.93;;;2.30;7.40;;;;;;6110340;23;20147;-90
2022/03/06 04:03:29;;;;;;;45.13;25.93;;;2.30;6.10;;;;;;6108542;23;20147;-91
2022/03/06 04:06:13;;;;;;;38.80;23.93;;;2.30;5.10;;;;;;6140380;23;20139;-88
2022/03/06 04:08:39;;;;;;;40.57;24.77;;;2.20;4.50;;;;;;6112948;23;20190;-89
2022/03/06 04:11:13;;;;;;;45.23;25.10;;;2.10;9.30;;;;;;6107422;23;20143;-90
2022/03/06 04:13:38;;;;;;;40.70;25.60;;;2.20;9.10;;;;;;6106573;23;20202;-91
2022/03/06 04:16:05;;;;;;;41.47;25.53;;;2.20;8.20;;;;;;6106109;23;20184;-89
2022/03/06 04:18:30;;;;;;;40.00;24.30;;;2.10;8.80;;;;;;6109331;23;20150;-91
2022/03/06 04:20:56;;;;;;;38.27;24.23;;;2.10;7.10;;;;;;6114946;23;20147;-89
2022/03/06 04:23:34;;;;;;;37.33;23.00;;;2.10;7.70;;;;;;6119803;23;20166;-89
2022/03/06 04:26:02;;;;;;;35.90;21.30;;;2.00;8.10;;;;;;6115677;23;20210;-88
2022/03/06 04:28:31;;;;;;;40.23;23.57;;;2.00;11.40;;;;;;6108089;23;20187;-89
2022/03/06 04:30:59;;;;;;;39.70;24.30;;;2.00;8.50;;;;;;6108443;23;20632;-89
2022/03/06 04:33:27;;;;;;;37.00;24.57;;;2.00;8.80;;;;;;6106304;23;20147;-89
2022/03/06 04:35:52;;;;;;;40.23;26.17;;;2.00;10.00;;;;;;6114835;23;20151;-90
2022/03/06 04:38:21;;;;;;;42.17;25.20;;;2.10;7.30;;;;;;6110312;23;20290;-89
2022/03/06 04:40:47;;;;;;;42.17;25.90;;;2.10;4.90;;;;;;6109792;23;20166;-89
2022/03/06 04:43:13;;;;;;;37.83;24.40;;;2.10;3.60;;;;;;6110331;23;20136;-89
2022/03/06 04:45:41;;;;;;;35.17;23.00;;;2.20;3.50;;;;;;6107416;23;20148;-90
2022/03/06 04:48:07;;;;;;;39.17;22.83;;;2.10;1.00;;;;;;6106623;23;20202;-88
2022/03/06 04:50:34;;;;;;;37.33;23.73;;;2.00;1.00;;;;;;6110913;23;20595;-90
2022/03/06 04:53:00;;;;;;;38.07;24.00;;;2.00;1.10;;;;;;6092350;23;20153;-88
2022/03/06 04:55:27;;;;;;;38.67;23.70;;;1.90;1.40;;;;;;6115941;23;20179;-89
2022/03/06 04:58:21;;;;;;;37.27;23.47;;;2.00;2.60;;;;;;6112059;23;20201;-89
2022/03/06 05:00:53;;;;;;;39.00;22.37;;;2.00;1.00;;;;;;6108453;23;20150;-89
2022/03/06 05:03:23;;;;;;;39.03;24.40;;;1.90;2.30;;;;;;6108557;23;20509;-91
2022/03/06 05:05:50;;;;;;;40.70;24.60;;;1.90;4.40;;;;;;6134102;23;20135;-89
2022/03/06 05:08:16;;;;;;;36.20;23.70;;;1.90;3.90;;;;;;6106107;23;20632;-88
2022/03/06 05:10:45;;;;;;;29.97;18.40;;;1.90;1.20;;;;;;6114690;23;20159;-90
2022/03/06 05:13:11;;;;;;;36.00;22.77;;;1.90;1.00;;;;;;6129595;23;20143;-91
2022/03/06 05:15:42;;;;;;;38.60;23.67;;;1.80;2.10;;;;;;6118437;23;20564;-88
2022/03/06 05:18:09;;;;;;;35.50;21.83;;;1.70;3.30;;;;;;6119043;23;20159;-89
2022/03/06 05:20:38;;;;;;;37.03;22.37;;;1.70;4.00;;;;;;6109789;23;20151;-94
2022/03/06 05:23:12;;;;;;;36.27;22.80;;;1.70;1.30;;;;;;6107674;23;20298;-94
2022/03/06 05:25:37;;;;;;;35.10;22.60;;;1.70;3.60;;;;;;6107669;23;20379;-88
2022/03/06 05:28:03;;;;;;;35.70;23.67;;;1.70;1.40;;;;;;6106044;23;20195;-90
2022/03/06 05:30:30;;;;;;;35.97;20.77;;;1.70;2.00;;;;;;6108593;23;20159;-89
2022/03/06 05:32:57;;;;;;;35.43;20.87;;;1.60;3.30;;;;;;6126687;23;20135;-88
2022/03/06 05:35:23;;;;;;;37.87;23.50;;;1.60;5.60;;;;;;6150608;23;20150;-89
2022/03/06 05:37:49;;;;;;;36.83;21.53;;;1.60;8.80;;;;;;6111482;23;20175;-91
2022/03/06 05:40:19;;;;;;;34.23;20.73;;;1.60;7.30;;;;;;6143499;23;20159;-91
2022/03/06 05:42:44;;;;;;;37.57;21.30;;;1.60;3.70;;;;;;6089148;23;20163;-89
2022/03/06 05:45:10;;;;;;;36.10;22.07;;;1.50;3.20;;;;;;6105950;23;20247;-91
2022/03/06 05:47:36;;;;;;;36.57;22.30;;;1.50;4.80;;;;;;6107260;23;20217;-92
2022/03/06 05:50:05;;;;;;;36.07;21.93;;;1.50;5.90;;;;;;6087843;23;20171;-88
2022/03/06 05:52:31;;;;;;;34.77;20.53;;;1.50;4.90;;;;;;6116711;23;20151;-90
2022/03/06 05:54:59;;;;;;;38.27;21.03;;;1.50;4.80;;;;;;6113092;23;20175;-92
2022/03/06 05:57:26;;;;;;;33.83;21.67;;;1.50;5.20;;;;;;6106993;23;20178;-90
2022/03/06 05:59:56;;;;;;;34.07;18.23;;;1.40;7.40;;;;;;6106587;23;20213;-91
2022/03/06 06:02:22;;;;;;;38.33;20.53;;;1.40;7.20;;;;;;6106625;23;20148;-91
2022/03/06 06:04:48;;;;;;;33.57;20.30;;;1.40;10.20;;;;;;6106494;23;20151;-90
2022/03/06 06:07:14;;;;;;;45.13;22.23;;;1.40;11.00;;;;;;6106032;23;20544;-89
2022/03/06 06:09:39;;;;;;;32.93;19.97;;;1.40;12.40;;;;;;6106230;23;20154;-90
2022/03/06 06:12:07;;;;;;;33.57;20.60;;;1.40;8.50;;;;;;6120013;23;20139;-88
2022/03/06 06:14:36;;;;;;;31.87;20.53;;;1.40;8.20;;;;;;6092064;23;20151;-87
2022/03/06 06:17:16;;;;;;;34.97;21.83;;;1.30;9.70;;;;;;6121249;23;20146;-89
2022/03/06 06:19:47;;;;;;;34.93;19.23;;;1.30;10.80;;;;;;6114710;23;20154;-89
2022/03/06 06:22:13;;;;;;;36.13;21.83;;;1.30;10.70;;;;;;6112416;23;20159;-89
2022/03/06 06:24:39;;;;;;;36.00;20.83;;;1.30;11.20;;;;;;6109270;23;20151;-89
2022/03/06 06:27:07;;;;;;;29.00;15.77;;;1.30;12.50;;;;;;6114002;23;20187;-90
2022/03/06 06:29:36;;;;;;;28.63;15.63;;;1.20;13.20;;;;;;6125270;23;20127;-88
2022/03/06 06:32:07;;;;;;;35.53;19.87;;;1.10;15.90;;;;;;6126271;23;20206;-89
2022/03/06 06:34:35;;;;;;;29.63;17.87;;;1.10;18.40;;;;;;6114289;23;20229;-91
2022/03/06 06:37:01;;;;;;;34.27;18.13;;;1.10;18.00;;;;;;6107602;23;20172;-91
2022/03/06 06:39:26;;;;;;;33.33;19.00;;;1.10;19.10;;;;;;6106117;23;20173;-93
2022/03/06 06:41:52;;;;;;;36.47;20.87;;;1.20;19.30;;;;;;6106335;23;20159;-92
2022/03/06 06:44:18;;;;;;;38.03;20.23;;;1.20;20.60;;;;;;6105752;23;20171;-89
2022/03/06 06:46:45;;;;;;;32.13;19.60;;;1.20;18.50;;;;;;6112545;23;20664;-94
2022/03/06 06:49:11;;;;;;;33.13;19.43;;;1.20;19.90;;;;;;6136397;23;20151;-91
2022/03/06 06:51:41;;;;;;;32.30;20.07;;;1.30;19.40;;;;;;6083247;23;20501;-90
2022/03/06 06:54:07;;;;;;;33.43;20.63;;;1.20;19.00;;;;;;6106172;23;20175;-91
2022/03/06 06:56:32;;;;;;;34.00;21.17;;;1.20;18.40;;;;;;6117110;23;20166;-89
2022/03/06 06:58:59;;;;;;;33.97;21.27;;;1.20;21.30;;;;;;6113640;23;20592;-88
2022/03/06 07:01:25;;;;;;;38.77;22.73;;;1.30;21.70;;;;;;6115410;23;20131;-89
2022/03/06 07:03:51;;;;;;;34.73;21.10;;;1.30;18.70;;;;;;6127847;23;20140;-88
2022/03/06 07:06:21;;;;;;;31.87;18.37;;;1.30;19.20;;;;;;6145950;23;20466;-90
2022/03/06 07:08:47;;;;;;;30.57;19.67;;;1.30;17.70;;;;;;6108102;23;20195;-91
2022/03/06 07:11:15;;;;;;;29.07;18.90;;;1.40;15.70;;;;;;6105299;23;20165;-89
2022/03/06 07:14:04;;;;;;;27.93;18.00;;;1.40;16.20;;;;;;6104701;23;20190;-90
2022/03/06 07:16:29;;;;;;;31.07;19.00;;;1.40;13.60;;;;;;6102967;23;20151;-89
2022/03/06 07:19:02;;;;;;;30.77;18.77;;;1.40;14.10;;;;;;6147160;23;20182;-90
2022/03/06 07:21:28;;;;;;;35.37;19.60;;;1.40;13.70;;;;;;6128238;23;20182;-90
2022/03/06 07:23:54;;;;;;;32.83;19.53;;;1.40;15.30;;;;;;6118183;23;20162;-89
2022/03/06 07:26:34;;;;;;;31.63;19.30;;;1.30;9.80;;;;;;6108306;23;20162;-90
2022/03/06 07:32:50;;;;;;;36.83;19.80;;;1.40;10.80;;;;;;6145742;23;20154;-89
2022/03/06 07:35:19;;;;;;;31.80;19.37;;;1.30;11.00;;;;;;6119924;23;20202;-88
2022/03/06 07:37:52;;;;;;;32.07;19.73;;;1.40;9.20;;;;;;6115892;23;20179;-91
2022/03/06 07:40:23;;;;;;;30.13;19.17;;;1.40;6.00;;;;;;6095357;23;20162;-90
2022/03/06 07:42:51;;;;;;;32.23;19.97;;;1.50;3.60;;;;;;6109236;23;20598;-90
2022/03/06 07:45:19;;;;;;;32.40;20.13;;;1.60;1.00;;;;;;6106203;23;20154;-90
2022/03/06 07:47:48;;;;;;;30.87;19.70;;;1.70;1.00;;;;;;6133045;23;20183;-88
2022/03/06 07:50:14;;;;;;;34.97;20.37;;;1.70;1.00;;;;;;6127281;23;20178;-90
2022/03/06 07:52:40;;;;;;;39.10;21.50;;;1.80;1.00;;;;;;6127578;23;20163;-90
2022/03/06 07:55:07;;;;;;;32.60;19.50;;;1.90;1.00;;;;;;6126482;23;20211;-89
2022/03/06 07:57:34;;;;;;;31.73;18.40;;;1.80;1.00;;;;;;6109452;23;20167;-91
2022/03/06 08:00:00;;;;;;;27.17;16.17;;;1.80;1.00;;;;;;6094092;23;20151;-88
2022/03/06 08:02:41;;;;;;;29.40;17.60;;;1.60;1.00;;;;;;6141634;23;20167;-87
2022/03/06 08:05:23;;;;;;;31.83;19.03;;;1.50;1.00;;;;;;6138332;23;20158;-88
2022/03/06 08:08:41;;;;;;;30.47;19.30;;;1.70;1.00;;;;;;6110532;23;20187;-88
2022/03/06 08:11:07;;;;;;;35.90;20.63;;;1.60;1.00;;;;;;6117094;23;20170;-88
2022/03/06 08:13:34;;;;;;;24.93;14.97;;;1.70;1.00;;;;;;6126799;23;20147;-86
2022/03/06 08:16:00;;;;;;;28.80;18.13;;;1.60;1.00;;;;;;6118483;23;20178;-87
2022/03/06 08:18:27;;;;;;;30.03;19.77;;;1.60;1.00;;;;;;6113090;23;20155;-89
2022/03/06 08:20:56;;;;;;;31.63;18.27;;;1.60;1.00;;;;;;6117151;23;20163;-87
2022/03/06 08:23:23;;;;;;;27.33;17.97;;;1.70;1.00;;;;;;6135386;23;20139;-88
2022/03/06 08:25:53;;;;;;;30.90;19.90;;;1.90;1.00;;;;;;6108785;23;20221;-87
2022/03/06 08:28:24;;;;;;;29.07;17.73;;;2.00;1.00;;;;;;6090024;23;20218;-89
2022/03/06 08:30:51;;;;;;;24.97;15.67;;;1.90;1.00;;;;;;6132754;23;20147;-88
2022/03/06 08:33:19;;;;;;;28.90;19.10;;;1.90;1.00;;;;;;6105607;23;20244;-88
2022/03/06 08:35:48;;;;;;;30.90;18.93;;;1.80;1.00;;;;;;6108152;23;20158;-89
2022/03/06 08:38:13;;;;;;;31.03;19.47;;;2.00;1.00;;;;;;6107469;23;20479;-89
2022/03/06 08:40:46;;;;;;;30.63;19.67;;;2.10;1.00;;;;;;6117174;23;20159;-87
2022/03/06 08:43:12;;;;;;;32.63;20.13;;;2.20;1.00;;;;;;6155077;23;20178;-89
2022/03/06 08:45:38;;;;;;;31.03;18.90;;;2.30;1.00;;;;;;6129105;23;20155;-93
2022/03/06 08:48:04;;;;;;;29.33;19.23;;;2.40;1.00;;;;;;6124176;23;20205;-90
2022/03/06 08:50:31;;;;;;;28.87;19.00;;;2.60;1.00;;;;;;6124429;23;20159;-90
2022/03/06 08:53:01;;;;;;;29.60;18.70;;;2.50;1.00;;;;;;6124570;23;20182;-89
2022/03/06 08:55:39;;;;;;;31.80;18.87;;;2.50;1.00;;;;;;6127624;23;20202;-89
2022/03/06 08:58:12;;;;;;;29.57;19.17;;;2.30;1.00;;;;;;6147671;23;20170;-90
2022/03/06 09:00:41;;;;;;;28.10;19.17;;;2.60;1.00;;;;;;6119530;23;20208;-90
2022/03/06 09:03:07;;;;;;;28.83;19.63;;;2.20;1.00;;;;;;6116377;23;20218;-90
2022/03/06 09:05:52;;;;;;;27.70;16.70;;;2.60;1.00;;;;;;6090412;23;20155;-91
2022/03/06 09:08:22;;;;;;;27.60;18.00;;;2.60;1.00;;;;;;6104195;23;20321;-91
2022/03/06 09:11:08;;;;;;;29.53;18.60;;;2.60;1.00;;;;;;6133896;23;20170;-91
2022/03/06 09:13:37;;;;;;;29.13;19.37;;;2.70;1.00;;;;;;6134243;23;20171;-89
2022/03/06 09:16:05;;;;;;;28.20;19.23;;;2.70;1.00;;;;;;6132753;23;20131;-89
2022/03/06 09:18:47;;;;;;;29.70;20.17;;;2.80;1.00;;;;;;6106050;23;20222;-88
2022/03/06 09:21:14;;;;;;;30.83;21.80;;;2.90;1.00;;;;;;6106339;23;20151;-88
2022/03/06 09:23:41;;;;;;;24.93;17.37;;;3.00;1.00;;;;;;6105121;23;20174;-90
2022/03/06 09:26:07;;;;;;;29.40;20.07;;;3.00;1.00;;;;;;6109047;23;20214;-89
2022/03/06 09:28:33;;;;;;;24.63;17.13;;;3.20;1.00;;;;;;6105666;23;20628;-91
2022/03/06 09:31:09;;;;;;;29.37;20.37;;;3.10;1.00;;;;;;6107603;23;20165;-91
2022/03/06 09:34:17;;;;;;;28.67;19.90;;;3.20;1.00;;;;;;6116088;23;20157;-92
2022/03/06 09:36:43;;;;;;;26.80;19.17;;;3.50;1.00;;;;;;6070269;23;20189;-90
2022/03/06 09:39:09;;;;;;;28.33;18.40;;;3.70;1.00;;;;;;6108227;23;20151;-90
2022/03/06 09:41:38;;;;;;;26.00;16.70;;;3.70;1.00;;;;;;6107586;23;20602;-89
2022/03/06 09:44:12;;;;;;;29.70;18.90;;;3.70;99.90;;;;;;6108311;23;20152;-93
2022/03/06 09:46:39;;;;;;;26.20;17.60;;;3.60;99.90;;;;;;6107807;23;20181;-93
2022/03/06 09:49:07;;;;;;;27.53;17.93;;;3.70;99.90;;;;;;6117690;23;20155;-87
2022/03/06 09:51:35;;;;;;;25.90;17.67;;;3.80;99.90;;;;;;6113313;23;20173;-89
2022/03/06 09:54:04;;;;;;;26.80;19.00;;;4.00;99.90;;;;;;6089291;23;20179;-92
2022/03/06 09:56:30;;;;;;;26.90;18.80;;;3.90;99.90;;;;;;6108741;23;20576;-90
2022/03/06 09:58:56;;;;;;;25.23;17.60;;;4.00;99.90;;;;;;6107707;23;20164;-94
2022/03/06 10:01:22;;;;;;;24.47;17.67;;;4.10;99.90;;;;;;6107638;23;20643;-90
2022/03/06 10:03:47;;;;;;;25.03;16.03;;;4.20;1.00;;;;;;6114460;23;20155;-92
2022/03/06 10:06:13;;;;;;;25.57;18.33;;;4.30;1.00;;;;;;6106359;23;20143;-91
2022/03/06 10:08:42;;;;;;;25.40;18.77;;;4.30;1.00;;;;;;6106380;23;20186;-92
2022/03/06 10:11:11;;;;;;;26.53;19.27;;;4.30;1.00;;;;;;6106902;23;20193;-93
2022/03/06 10:13:39;;;;;;;25.83;19.03;;;4.40;99.90;;;;;;6105116;23;20186;-93
2022/03/06 10:16:31;;;;;;;25.73;18.30;;;4.70;99.90;;;;;;6136171;23;20190;-93
2022/03/06 10:18:58;;;;;;;23.53;17.80;;;4.60;1.00;;;;;;6112334;23;20155;-92
2022/03/06 10:21:29;;;;;;;24.47;17.63;;;4.60;1.00;;;;;;6106022;23;20178;-90
2022/03/06 10:24:02;;;;;;;26.13;18.37;;;4.60;99.90;;;;;;6113018;23;20166;-89
2022/03/06 10:26:35;;;;;;;23.70;17.30;;;4.80;1.00;;;;;;6117487;23;20158;-88
2022/03/06 10:29:08;;;;;;;25.77;18.23;;;4.80;1.00;;;;;;6107812;23;20163;-91
2022/03/06 10:31:54;;;;;;;26.13;17.80;;;4.70;99.90;;;;;;6107906;23;20150;-91
2022/03/06 10:34:37;;;;;;;24.97;17.77;;;4.80;99.90;;;;;;6105158;23;20155;-90
2022/03/06 10:37:06;;;;;;;23.37;17.80;;;4.90;99.90;;;;;;6106337;23;20230;-89
2022/03/06 10:39:46;;;;;;;24.50;17.97;;;5.10;1.00;;;;;;6083796;23;20167;-89
2022/03/06 10:42:21;;;;;;;23.70;16.23;;;5.20;99.90;;;;;;6108899;23;20254;-91
2022/03/06 10:44:48;;;;;;;23.63;17.27;;;5.00;99.90;;;;;;6109914;23;20150;-91
2022/03/06 10:47:16;;;;;;;23.40;16.73;;;5.20;99.90;;;;;;6108407;23;20189;-88
2022/03/06 10:50:02;;;;;;;21.53;16.77;;;5.30;99.90;;;;;;6108916;23;20229;-89
2022/03/06 10:52:28;;;;;;;21.17;15.97;;;5.30;99.90;;;;;;6109050;23;20206;-90
2022/03/06 10:54:57;;;;;;;22.73;16.50;;;5.40;99.90;;;;;;6108286;23;20198;-90
2022/03/06 10:57:24;;;;;;;22.77;17.17;;;5.40;99.90;;;;;;6105169;23;20166;-91
2022/03/06 10:59:51;;;;;;;23.80;16.67;;;5.60;99.90;;;;;;6104226;23;20257;-90
2022/03/06 11:02:20;;;;;;;23.83;17.30;;;5.50;99.90;;;;;;6105204;23;20519;-87
2022/03/06 11:04:46;;;;;;;23.20;16.20;;;5.50;99.90;;;;;;6106467;23;20152;-88
2022/03/06 11:07:13;;;;;;;20.97;16.93;;;5.70;1.00;;;;;;6105315;23;20206;-89
2022/03/06 11:09:39;;;;;;;20.50;13.70;;;5.70;99.90;;;;;;6111873;23;20139;-93
2022/03/06 11:12:17;;;;;;;24.70;16.00;;;5.70;1.00;;;;;;6123449;23;20155;-93
2022/03/06 11:14:44;;;;;;;21.93;16.97;;;5.70;1.00;;;;;;6143326;23;20162;-91
2022/03/06 11:17:12;;;;;;;20.63;16.07;;;5.70;99.90;;;;;;6123016;23;20143;-90
2022/03/06 11:19:43;;;;;;;22.87;17.10;;;5.90;99.90;;;;;;6122870;23;20165;-88
2022/03/06 11:22:31;;;;;;;19.87;13.33;;;6.00;62.30;;;;;;6118747;23;20159;-91
2022/03/06 11:25:39;;;;;;;18.70;13.93;;;6.10;1.00;;;;;;6139678;23;20143;-91
2022/03/06 11:28:17;;;;;;;21.37;14.93;;;6.10;99.90;;;;;;6119589;23;20242;-93
2022/03/06 11:30:49;;;;;;;25.80;17.50;;;5.60;99.90;;;;;;6115191;23;20147;-90
2022/03/06 11:33:19;;;;;;;25.90;17.47;;;6.00;1.00;;;;;;6115046;23;20151;-91
2022/03/06 11:35:48;;;;;;;20.27;15.30;;;6.40;1.00;;;;;;6107683;23;20699;-88
2022/03/06 11:38:17;;;;;;;20.40;15.53;;;6.30;99.90;;;;;;6110006;23;20182;-89
2022/03/06 11:40:53;;;;;;;22.33;16.67;;;6.50;99.90;;;;;;6113122;23;20159;-88
2022/03/06 11:43:48;;;;;;;21.87;15.50;;;6.40;1.00;;;;;;6108891;23;20159;-87
2022/03/06 11:46:24;;;;;;;20.63;14.87;;;6.40;1.00;;;;;;6140530;23;20132;-89
2022/03/06 11:48:51;;;;;;;19.23;13.73;;;6.20;1.00;;;;;;6107925;23;20190;-88
2022/03/06 11:51:21;;;;;;;21.17;13.87;;;6.20;1.00;;;;;;6107105;23;20290;-89
2022/03/06 11:53:55;;;;;;;21.13;15.23;;;6.30;1.00;;;;;;6122381;23;20159;-90
2022/03/06 11:56:33;;;;;;;20.83;15.73;;;6.40;1.00;;;;;;6109648;23;20635;-91
2022/03/06 11:59:19;;;;;;;19.63;14.63;;;6.40;1.00;;;;;;6111810;23;20174;-91
2022/03/06 12:01:51;;;;;;;21.33;14.60;;;6.60;1.00;;;;;;6106663;23;20147;-88
2022/03/06 12:04:24;;;;;;;19.07;14.13;;;6.60;1.00;;;;;;6104957;23;20241;-88
2022/03/06 12:07:11;;;;;;;16.50;11.90;;;6.70;99.90;;;;;;6136219;23;20131;-91
2022/03/06 12:09:42;;;;;;;17.60;13.30;;;6.70;99.90;;;;;;6113127;23;20154;-92
2022/03/06 12:12:18;;;;;;;18.27;13.47;;;6.70;99.90;;;;;;6108953;23;20175;-93
2022/03/06 12:14:46;;;;;;;18.77;13.13;;;7.00;99.90;;;;;;6108248;23;20525;-88
2022/03/06 12:17:13;;;;;;;18.47;12.93;;;7.10;99.90;;;;;;6105899;23;20652;-87
2022/03/06 12:20:07;;;;;;;15.40;11.53;;;7.10;99.90;;;;;;6108372;23;20147;-88
2022/03/06 12:22:34;;;;;;;16.43;11.37;;;6.90;99.90;;;;;;6072897;23;20178;-88
2022/03/06 12:25:09;;;;;;;19.80;12.20;;;7.00;99.90;;;;;;6108375;23;20210;-88
2022/03/06 12:27:43;;;;;;;15.67;11.93;;;6.90;15.50;;;;;;6107083;23;20182;-86
2022/03/06 12:30:13;;;;;;;17.83;11.67;;;7.00;77.60;;;;;;6106762;23;20607;-89
2022/03/06 12:32:41;;;;;;;15.67;10.70;;;7.10;47.80;;;;;;6106075;23;20166;-88
2022/03/06 12:35:08;;;;;;;16.73;11.63;;;7.10;1.00;;;;;;6106424;23;20160;-87
2022/03/06 12:37:51;;;;;;;15.97;11.67;;;7.20;6.50;;;;;;6106593;23;20182;-90
2022/03/06 12:40:19;;;;;;;14.77;11.97;;;7.20;14.80;;;;;;6107059;23;20150;-88
2022/03/06 12:42:51;;;;;;;14.27;11.80;;;7.30;27.90;;;;;;6106930;23;20648;-89
2022/03/06 12:45:18;;;;;;;15.13;11.83;;;7.50;1.00;;;;;;6106480;23;20588;-88
2022/03/06 12:47:46;;;;;;;15.67;12.20;;;7.50;1.00;;;;;;6115032;23;20675;-87
2022/03/06 12:50:18;;;;;;;14.47;11.57;;;7.50;1.00;;;;;;6141341;23;20608;-88
2022/03/06 12:52:59;;;;;;;17.17;12.80;;;7.50;1.00;;;;;;6089481;23;20166;-89
2022/03/06 12:55:26;;;;;;;15.70;11.93;;;7.50;1.00;;;;;;6112608;23;20183;-87
2022/03/06 12:57:54;;;;;;;13.50;10.97;;;7.50;1.00;;;;;;6115944;23;20241;-88
2022/03/06 13:00:26;;;;;;;13.57;10.93;;;7.60;1.00;;;;;;6119384;23;20201;-87
2022/03/06 13:03:00;;;;;;;16.37;12.00;;;7.50;1.00;;;;;;6126625;23;20143;-89
2022/03/06 13:05:27;;;;;;;13.80;11.87;;;7.50;1.00;;;;;;6123580;23;20238;-90
2022/03/06 13:08:00;;;;;;;14.27;11.40;;;7.60;1.00;;;;;;6126564;23;20177;-87